sensor_id;sensor_type;location;lat;lon;timestamp;temperature;humidity
70336;SHT31;57756;47.408;18.940;2022-12-07T00:01:28;1.66;99.42
70336;SHT31;57756;47.408;18.940;2022-12-07T00:03:54;1.63;99.38
70336;SHT31;57756;47.408;18.940;2022-12-07T00:06:22;1.63;99.33
70336;SHT31;57756;47.408;18.940;2022-12-07T00:08:48;1.65;99.31
70336;SHT31;57756;47.408;18.940;2022-12-07T00:11:19;1.62;99.36
70336;SHT31;57756;47.408;18.940;2022-12-07T00:13:45;1.62;99.21
70336;SHT31;57756;47.408;18.940;2022-12-07T00:16:14;1.62;99.07
70336;SHT31;57756;47.408;18.940;2022-12-07T00:18:41;1.59;98.95
70336;SHT31;57756;47.408;18.940;2022-12-07T00:21:11;1.54;99.15
70336;SHT31;57756;47.408;18.940;2022-12-07T00:23:37;1.51;99.01
70336;SHT31;57756;47.408;18.940;2022-12-07T00:26:05;1.47;98.97
70336;SHT31;57756;47.408;18.940;2022-12-07T00:28:31;1.41;98.70
70336;SHT31;57756;47.408;18.940;2022-12-07T00:31:08;1.38;98.95
70336;SHT31;57756;47.408;18.940;2022-12-07T00:33:34;1.34;99.27
70336;SHT31;57756;47.408;18.940;2022-12-07T00:36:01;1.30;98.99
70336;SHT31;57756;47.408;18.940;2022-12-07T00:38:29;1.27;98.84
70336;SHT31;57756;47.408;18.940;2022-12-07T00:41:09;1.23;99.08
70336;SHT31;57756;47.408;18.940;2022-12-07T00:43:35;1.23;99.13
70336;SHT31;57756;47.408;18.940;2022-12-07T00:46:00;1.20;99.44
70336;SHT31;57756;47.408;18.940;2022-12-07T00:48:26;1.20;99.76
70336;SHT31;57756;47.408;18.940;2022-12-07T00:50:52;1.23;99.86
70336;SHT31;57756;47.408;18.940;2022-12-07T00:53:18;1.20;99.80
70336;SHT31;57756;47.408;18.940;2022-12-07T00:55:44;1.16;99.66
70336;SHT31;57756;47.408;18.940;2022-12-07T00:58:10;1.16;99.79
70336;SHT31;57756;47.408;18.940;2022-12-07T01:00:38;1.14;99.72
70336;SHT31;57756;47.408;18.940;2022-12-07T01:03:04;1.13;99.99
70336;SHT31;57756;47.408;18.940;2022-12-07T01:05:30;1.12;99.83
70336;SHT31;57756;47.408;18.940;2022-12-07T01:07:55;1.10;99.87
70336;SHT31;57756;47.408;18.940;2022-12-07T01:10:21;1.08;99.62
70336;SHT31;57756;47.408;18.940;2022-12-07T01:12:47;1.08;99.70
70336;SHT31;57756;47.408;18.940;2022-12-07T01:15:13;1.01;99.45
70336;SHT31;57756;47.408;18.940;2022-12-07T01:17:38;1.00;99.38
70336;SHT31;57756;47.408;18.940;2022-12-07T01:20:04;1.00;99.38
70336;SHT31;57756;47.408;18.940;2022-12-07T01:22:30;0.96;99.13
70336;SHT31;57756;47.408;18.940;2022-12-07T01:24:55;0.93;99.34
70336;SHT31;57756;47.408;18.940;2022-12-07T01:27:21;0.86;99.11
70336;SHT31;57756;47.408;18.940;2022-12-07T01:29:46;0.90;98.76
70336;SHT31;57756;47.408;18.940;2022-12-07T01:32:12;0.82;98.78
70336;SHT31;57756;47.408;18.940;2022-12-07T01:34:37;0.76;99.05
70336;SHT31;57756;47.408;18.940;2022-12-07T01:37:03;0.75;98.85
70336;SHT31;57756;47.408;18.940;2022-12-07T01:39:29;0.75;99.02
70336;SHT31;57756;47.408;18.940;2022-12-07T01:41:55;0.77;99.20
70336;SHT31;57756;47.408;18.940;2022-12-07T01:44:28;0.79;99.61
70336;SHT31;57756;47.408;18.940;2022-12-07T01:47:03;0.82;99.54
70336;SHT31;57756;47.408;18.940;2022-12-07T01:52:25;0.85;99.28
70336;SHT31;57756;47.408;18.940;2022-12-07T01:54:55;0.89;99.28
70336;SHT31;57756;47.408;18.940;2022-12-07T01:57:22;0.86;99.99
70336;SHT31;57756;47.408;18.940;2022-12-07T01:59:51;0.90;99.99
70336;SHT31;57756;47.408;18.940;2022-12-07T02:02:30;0.96;99.99
70336;SHT31;57756;47.408;18.940;2022-12-07T02:05:00;1.01;99.99
70336;SHT31;57756;47.408;18.940;2022-12-07T02:07:26;1.01;99.99
70336;SHT31;57756;47.408;18.940;2022-12-07T02:09:53;1.01;99.99
70336;SHT31;57756;47.408;18.940;2022-12-07T02:12:19;1.07;99.99
70336;SHT31;57756;47.408;18.940;2022-12-07T02:14:45;1.08;99.99
70336;SHT31;57756;47.408;18.940;2022-12-07T02:17:41;1.06;99.99
70336;SHT31;57756;47.408;18.940;2022-12-07T02:31:45;1.23;99.99
70336;SHT31;57756;47.408;18.940;2022-12-07T02:34:29;1.31;99.99
70336;SHT31;57756;47.408;18.940;2022-12-07T02:37:00;1.37;99.99
70336;SHT31;57756;47.408;18.940;2022-12-07T02:39:42;1.41;99.99
70336;SHT31;57756;47.408;18.940;2022-12-07T02:42:25;1.50;99.99
70336;SHT31;57756;47.408;18.940;2022-12-07T02:44:52;1.52;99.99
70336;SHT31;57756;47.408;18.940;2022-12-07T02:47:18;1.55;99.99
70336;SHT31;57756;47.408;18.940;2022-12-07T02:49:45;1.56;99.99
70336;SHT31;57756;47.408;18.940;2022-12-07T02:52:11;1.62;99.99
70336;SHT31;57756;47.408;18.940;2022-12-07T02:54:37;1.62;99.99
70336;SHT31;57756;47.408;18.940;2022-12-07T03:11:33;1.66;99.99
70336;SHT31;57756;47.408;18.940;2022-12-07T03:14:05;1.71;99.99
70336;SHT31;57756;47.408;18.940;2022-12-07T03:16:44;1.71;99.99
70336;SHT31;57756;47.408;18.940;2022-12-07T03:19:15;1.72;99.99
70336;SHT31;57756;47.408;18.940;2022-12-07T03:21:45;1.75;99.99
70336;SHT31;57756;47.408;18.940;2022-12-07T03:24:15;1.75;99.99
70336;SHT31;57756;47.408;18.940;2022-12-07T03:26:47;1.79;99.99
70336;SHT31;57756;47.408;18.940;2022-12-07T03:29:24;1.81;99.99
70336;SHT31;57756;47.408;18.940;2022-12-07T03:32:14;1.79;99.99
70336;SHT31;57756;47.408;18.940;2022-12-07T03:34:56;1.79;99.99
70336;SHT31;57756;47.408;18.940;2022-12-07T03:40:08;1.82;99.99
70336;SHT31;57756;47.408;18.940;2022-12-07T03:42:36;1.81;99.99
70336;SHT31;57756;47.408;18.940;2022-12-07T03:45:03;1.82;99.99
70336;SHT31;57756;47.408;18.940;2022-12-07T03:53:05;1.89;99.99
70336;SHT31;57756;47.408;18.940;2022-12-07T03:55:36;1.89;99.99
70336;SHT31;57756;47.408;18.940;2022-12-07T03:58:06;1.89;99.99
70336;SHT31;57756;47.408;18.940;2022-12-07T04:00:34;1.89;99.99
70336;SHT31;57756;47.408;18.940;2022-12-07T04:03:00;1.89;99.99
70336;SHT31;57756;47.408;18.940;2022-12-07T04:05:25;1.85;99.99
70336;SHT31;57756;47.408;18.940;2022-12-07T04:07:51;1.89;99.99
70336;SHT31;57756;47.408;18.940;2022-12-07T04:10:17;1.93;99.99
70336;SHT31;57756;47.408;18.940;2022-12-07T04:12:43;1.98;99.99
70336;SHT31;57756;47.408;18.940;2022-12-07T04:15:09;1.95;99.99
70336;SHT31;57756;47.408;18.940;2022-12-07T04:17:34;2.02;99.99
70336;SHT31;57756;47.408;18.940;2022-12-07T04:20:00;2.07;99.99
70336;SHT31;57756;47.408;18.940;2022-12-07T04:22:25;2.10;99.99
70336;SHT31;57756;47.408;18.940;2022-12-07T04:24:51;2.10;99.99
70336;SHT31;57756;47.408;18.940;2022-12-07T04:27:16;2.11;99.99
70336;SHT31;57756;47.408;18.940;2022-12-07T04:29:42;2.13;99.99
70336;SHT31;57756;47.408;18.940;2022-12-07T04:32:07;2.11;99.99
70336;SHT31;57756;47.408;18.940;2022-12-07T04:34:32;2.07;99.99
70336;SHT31;57756;47.408;18.940;2022-12-07T04:36:58;2.07;99.99
70336;SHT31;57756;47.408;18.940;2022-12-07T04:39:31;2.03;99.99
70336;SHT31;57756;47.408;18.940;2022-12-07T04:41:57;2.07;99.99
70336;SHT31;57756;47.408;18.940;2022-12-07T04:44:24;2.09;99.99
70336;SHT31;57756;47.408;18.940;2022-12-07T04:46:50;2.07;99.99
70336;SHT31;57756;47.408;18.940;2022-12-07T04:49:16;2.09;99.99
70336;SHT31;57756;47.408;18.940;2022-12-07T04:51:42;2.13;99.99
70336;SHT31;57756;47.408;18.940;2022-12-07T04:54:08;2.13;99.99
70336;SHT31;57756;47.408;18.940;2022-12-07T04:56:34;2.13;99.99
70336;SHT31;57756;47.408;18.940;2022-12-07T04:59:00;2.11;99.99
70336;SHT31;57756;47.408;18.940;2022-12-07T05:01:26;2.11;99.99
70336;SHT31;57756;47.408;18.940;2022-12-07T05:03:52;2.11;99.99
70336;SHT31;57756;47.408;18.940;2022-12-07T05:06:18;2.11;99.99
70336;SHT31;57756;47.408;18.940;2022-12-07T05:08:43;2.09;99.99
70336;SHT31;57756;47.408;18.940;2022-12-07T05:11:10;2.11;99.99
70336;SHT31;57756;47.408;18.940;2022-12-07T05:13:54;2.13;99.99
70336;SHT31;57756;47.408;18.940;2022-12-07T05:16:20;2.16;99.99
70336;SHT31;57756;47.408;18.940;2022-12-07T05:18:45;2.17;99.99
70336;SHT31;57756;47.408;18.940;2022-12-07T05:21:11;2.16;99.99
70336;SHT31;57756;47.408;18.940;2022-12-07T05:23:36;2.19;99.99
70336;SHT31;57756;47.408;18.940;2022-12-07T05:26:01;2.21;99.99
70336;SHT31;57756;47.408;18.940;2022-12-07T05:28:27;2.26;99.99
70336;SHT31;57756;47.408;18.940;2022-12-07T05:30:53;2.27;99.99
70336;SHT31;57756;47.408;18.940;2022-12-07T05:33:18;2.27;99.99
70336;SHT31;57756;47.408;18.940;2022-12-07T05:35:44;2.31;99.99
70336;SHT31;57756;47.408;18.940;2022-12-07T05:38:10;2.33;99.99
70336;SHT31;57756;47.408;18.940;2022-12-07T05:40:36;2.30;99.99
70336;SHT31;57756;47.408;18.940;2022-12-07T05:43:02;2.37;99.99
70336;SHT31;57756;47.408;18.940;2022-12-07T05:45:27;2.40;99.99
70336;SHT31;57756;47.408;18.940;2022-12-07T05:47:53;2.27;99.99
70336;SHT31;57756;47.408;18.940;2022-12-07T05:50:19;2.28;99.99
70336;SHT31;57756;47.408;18.940;2022-12-07T05:52:44;2.24;99.99
70336;SHT31;57756;47.408;18.940;2022-12-07T05:55:09;2.26;99.99
70336;SHT31;57756;47.408;18.940;2022-12-07T05:57:35;2.24;99.99
70336;SHT31;57756;47.408;18.940;2022-12-07T06:00:01;2.21;99.99
70336;SHT31;57756;47.408;18.940;2022-12-07T06:02:27;2.20;99.99
70336;SHT31;57756;47.408;18.940;2022-12-07T06:04:52;2.19;99.99
70336;SHT31;57756;47.408;18.940;2022-12-07T06:07:18;2.21;99.99
70336;SHT31;57756;47.408;18.940;2022-12-07T06:09:43;2.19;99.99
70336;SHT31;57756;47.408;18.940;2022-12-07T06:12:11;2.20;99.99
70336;SHT31;57756;47.408;18.940;2022-12-07T06:14:55;2.20;99.99
70336;SHT31;57756;47.408;18.940;2022-12-07T06:17:20;2.20;99.99
70336;SHT31;57756;47.408;18.940;2022-12-07T06:19:46;2.23;99.99
70336;SHT31;57756;47.408;18.940;2022-12-07T06:22:11;2.23;99.99
70336;SHT31;57756;47.408;18.940;2022-12-07T06:24:37;2.20;99.99
70336;SHT31;57756;47.408;18.940;2022-12-07T06:27:03;2.17;99.99
70336;SHT31;57756;47.408;18.940;2022-12-07T06:29:29;2.19;99.99
70336;SHT31;57756;47.408;18.940;2022-12-07T06:31:55;2.21;99.99
70336;SHT31;57756;47.408;18.940;2022-12-07T06:34:22;2.21;99.99
70336;SHT31;57756;47.408;18.940;2022-12-07T06:36:48;2.23;99.99
70336;SHT31;57756;47.408;18.940;2022-12-07T06:39:17;2.24;99.99
70336;SHT31;57756;47.408;18.940;2022-12-07T06:41:43;2.24;99.99
70336;SHT31;57756;47.408;18.940;2022-12-07T06:44:09;2.24;99.99
70336;SHT31;57756;47.408;18.940;2022-12-07T06:46:34;2.27;99.99
70336;SHT31;57756;47.408;18.940;2022-12-07T06:49:04;2.28;99.99
70336;SHT31;57756;47.408;18.940;2022-12-07T06:51:30;2.31;99.99
70336;SHT31;57756;47.408;18.940;2022-12-07T06:53:56;2.33;99.99
70336;SHT31;57756;47.408;18.940;2022-12-07T06:56:21;2.36;99.99
70336;SHT31;57756;47.408;18.940;2022-12-07T06:58:48;2.37;99.99
70336;SHT31;57756;47.408;18.940;2022-12-07T07:01:17;2.40;99.99
70336;SHT31;57756;47.408;18.940;2022-12-07T07:03:44;2.44;99.99
70336;SHT31;57756;47.408;18.940;2022-12-07T07:06:10;2.49;99.99
70336;SHT31;57756;47.408;18.940;2022-12-07T07:08:37;2.51;99.99
70336;SHT31;57756;47.408;18.940;2022-12-07T07:11:03;2.59;99.99
70336;SHT31;57756;47.408;18.940;2022-12-07T07:13:29;2.62;99.99
70336;SHT31;57756;47.408;18.940;2022-12-07T07:15:55;2.66;99.99
70336;SHT31;57756;47.408;18.940;2022-12-07T07:18:21;2.68;99.99
70336;SHT31;57756;47.408;18.940;2022-12-07T07:20:46;2.74;99.99
70336;SHT31;57756;47.408;18.940;2022-12-07T07:23:12;2.74;99.99
70336;SHT31;57756;47.408;18.940;2022-12-07T07:25:37;2.78;99.99
70336;SHT31;57756;47.408;18.940;2022-12-07T07:28:03;2.84;99.99
70336;SHT31;57756;47.408;18.940;2022-12-07T07:30:29;2.84;99.99
70336;SHT31;57756;47.408;18.940;2022-12-07T07:32:59;2.88;99.99
70336;SHT31;57756;47.408;18.940;2022-12-07T07:35:25;2.93;99.99
70336;SHT31;57756;47.408;18.940;2022-12-07T07:37:51;2.97;99.99
70336;SHT31;57756;47.408;18.940;2022-12-07T07:40:17;3.02;99.99
70336;SHT31;57756;47.408;18.940;2022-12-07T07:42:43;3.06;99.99
70336;SHT31;57756;47.408;18.940;2022-12-07T07:45:08;3.12;99.99
70336;SHT31;57756;47.408;18.940;2022-12-07T07:47:34;3.10;99.99
70336;SHT31;57756;47.408;18.940;2022-12-07T07:50:00;3.19;99.99
70336;SHT31;57756;47.408;18.940;2022-12-07T07:52:26;3.20;99.99
70336;SHT31;57756;47.408;18.940;2022-12-07T07:54:51;3.27;99.99
70336;SHT31;57756;47.408;18.940;2022-12-07T07:57:17;3.30;99.99
70336;SHT31;57756;47.408;18.940;2022-12-07T07:59:43;3.34;99.99
70336;SHT31;57756;47.408;18.940;2022-12-07T08:02:18;3.37;99.99
70336;SHT31;57756;47.408;18.940;2022-12-07T08:04:45;3.44;99.99
70336;SHT31;57756;47.408;18.940;2022-12-07T08:07:11;3.50;99.99
70336;SHT31;57756;47.408;18.940;2022-12-07T08:09:37;3.55;99.99
70336;SHT31;57756;47.408;18.940;2022-12-07T08:12:03;3.61;99.99
70336;SHT31;57756;47.408;18.940;2022-12-07T08:14:29;3.67;99.99
70336;SHT31;57756;47.408;18.940;2022-12-07T08:16:54;3.71;99.99
70336;SHT31;57756;47.408;18.940;2022-12-07T08:19:20;3.77;99.99
70336;SHT31;57756;47.408;18.940;2022-12-07T08:21:45;3.88;99.99
70336;SHT31;57756;47.408;18.940;2022-12-07T08:24:11;3.93;99.99
70336;SHT31;57756;47.408;18.940;2022-12-07T08:26:36;4.05;99.99
70336;SHT31;57756;47.408;18.940;2022-12-07T08:29:02;4.16;99.99
70336;SHT31;57756;47.408;18.940;2022-12-07T08:31:28;4.24;99.99
70336;SHT31;57756;47.408;18.940;2022-12-07T08:33:54;4.30;99.99
70336;SHT31;57756;47.408;18.940;2022-12-07T08:36:19;4.36;99.99
70336;SHT31;57756;47.408;18.940;2022-12-07T08:38:45;4.40;99.99
70336;SHT31;57756;47.408;18.940;2022-12-07T08:41:10;4.48;99.99
70336;SHT31;57756;47.408;18.940;2022-12-07T08:43:36;4.60;99.99
70336;SHT31;57756;47.408;18.940;2022-12-07T08:46:13;4.71;99.99
70336;SHT31;57756;47.408;18.940;2022-12-07T08:48:53;4.92;99.99
70336;SHT31;57756;47.408;18.940;2022-12-07T08:51:21;4.98;99.59
70336;SHT31;57756;47.408;18.940;2022-12-07T08:53:47;5.16;99.74
70336;SHT31;57756;47.408;18.940;2022-12-07T08:56:13;5.33;98.51
70336;SHT31;57756;47.408;18.940;2022-12-07T08:58:39;5.63;98.68
70336;SHT31;57756;47.408;18.940;2022-12-07T09:01:05;5.63;96.12
70336;SHT31;57756;47.408;18.940;2022-12-07T09:03:31;5.90;94.95
70336;SHT31;57756;47.408;18.940;2022-12-07T09:05:57;5.95;95.15
70336;SHT31;57756;47.408;18.940;2022-12-07T09:08:34;6.01;94.07
70336;SHT31;57756;47.408;18.940;2022-12-07T09:11:01;6.11;94.62
70336;SHT31;57756;47.408;18.940;2022-12-07T09:13:26;6.11;93.99
70336;SHT31;57756;47.408;18.940;2022-12-07T09:15:51;6.20;93.59
70336;SHT31;57756;47.408;18.940;2022-12-07T09:18:17;6.22;94.25
70336;SHT31;57756;47.408;18.940;2022-12-07T09:20:42;6.23;95.30
70336;SHT31;57756;47.408;18.940;2022-12-07T09:23:08;6.16;95.24
70336;SHT31;57756;47.408;18.940;2022-12-07T09:25:34;6.25;95.41
70336;SHT31;57756;47.408;18.940;2022-12-07T09:28:00;6.29;94.70
70336;SHT31;57756;47.408;18.940;2022-12-07T09:30:26;6.34;93.63
70336;SHT31;57756;47.408;18.940;2022-12-07T09:32:56;6.47;93.41
70336;SHT31;57756;47.408;18.940;2022-12-07T09:35:23;6.49;92.99
70336;SHT31;57756;47.408;18.940;2022-12-07T09:37:49;6.41;91.68
70336;SHT31;57756;47.408;18.940;2022-12-07T09:40:15;6.57;91.69
70336;SHT31;57756;47.408;18.940;2022-12-07T09:42:44;6.80;91.96
70336;SHT31;57756;47.408;18.940;2022-12-07T09:45:24;7.18;90.13
70336;SHT31;57756;47.408;18.940;2022-12-07T09:47:50;7.42;89.55
70336;SHT31;57756;47.408;18.940;2022-12-07T09:50:20;7.35;89.96
70336;SHT31;57756;47.408;18.940;2022-12-07T09:52:47;7.27;90.32
70336;SHT31;57756;47.408;18.940;2022-12-07T09:55:16;7.15;90.00
70336;SHT31;57756;47.408;18.940;2022-12-07T09:57:43;7.11;90.08
70336;SHT31;57756;47.408;18.940;2022-12-07T10:00:14;7.09;88.92
70336;SHT31;57756;47.408;18.940;2022-12-07T10:02:51;7.06;88.37
70336;SHT31;57756;47.408;18.940;2022-12-07T10:05:25;6.98;89.55
70336;SHT31;57756;47.408;18.940;2022-12-07T10:07:51;7.04;89.21
70336;SHT31;57756;47.408;18.940;2022-12-07T10:10:33;7.05;88.77
70336;SHT31;57756;47.408;18.940;2022-12-07T10:18:36;7.18;88.42
70336;SHT31;57756;47.408;18.940;2022-12-07T10:21:16;7.18;88.09
70336;SHT31;57756;47.408;18.940;2022-12-07T10:26:36;7.18;88.20
70336;SHT31;57756;47.408;18.940;2022-12-07T10:29:36;7.16;88.35
70336;SHT31;57756;47.408;18.940;2022-12-07T10:34:40;7.49;86.54
70336;SHT31;57756;47.408;18.940;2022-12-07T10:39:52;7.46;86.54
70336;SHT31;57756;47.408;18.940;2022-12-07T10:42:24;7.56;88.05
70336;SHT31;57756;47.408;18.940;2022-12-07T10:45:13;7.56;88.23
70336;SHT31;57756;47.408;18.940;2022-12-07T11:10:14;7.60;85.64
70336;SHT31;57756;47.408;18.940;2022-12-07T11:16:06;7.71;85.48
70336;SHT31;57756;47.408;18.940;2022-12-07T11:26:56;7.69;83.13
70336;SHT31;57756;47.408;18.940;2022-12-07T11:38:39;7.81;84.13
70336;SHT31;57756;47.408;18.940;2022-12-07T11:41:06;7.83;83.60
70336;SHT31;57756;47.408;18.940;2022-12-07T11:44:07;7.78;83.16
70336;SHT31;57756;47.408;18.940;2022-12-07T11:46:54;7.75;83.62
70336;SHT31;57756;47.408;18.940;2022-12-07T11:52:06;7.57;84.97
70336;SHT31;57756;47.408;18.940;2022-12-07T11:54:40;7.69;83.06
70336;SHT31;57756;47.408;18.940;2022-12-07T11:57:24;7.74;82.40
70336;SHT31;57756;47.408;18.940;2022-12-07T11:59:53;7.73;81.73
70336;SHT31;57756;47.408;18.940;2022-12-07T12:02:32;7.54;82.15
70336;SHT31;57756;47.408;18.940;2022-12-07T12:07:40;7.54;80.61
70336;SHT31;57756;47.408;18.940;2022-12-07T12:10:25;7.60;82.58
70336;SHT31;57756;47.408;18.940;2022-12-07T12:13:05;7.45;82.46
70336;SHT31;57756;47.408;18.940;2022-12-07T12:21:17;7.52;83.19
70336;SHT31;57756;47.408;18.940;2022-12-07T12:24:14;7.53;82.93
70336;SHT31;57756;47.408;18.940;2022-12-07T12:27:09;7.60;82.06
70336;SHT31;57756;47.408;18.940;2022-12-07T12:29:39;7.54;82.56
70336;SHT31;57756;47.408;18.940;2022-12-07T12:32:13;7.54;82.99
70336;SHT31;57756;47.408;18.940;2022-12-07T12:42:57;7.54;80.89
70336;SHT31;57756;47.408;18.940;2022-12-07T12:45:28;7.47;82.59
70336;SHT31;57756;47.408;18.940;2022-12-07T12:47:55;7.45;82.12
70336;SHT31;57756;47.408;18.940;2022-12-07T12:50:24;7.43;82.38
70336;SHT31;57756;47.408;18.940;2022-12-07T12:52:56;7.39;81.85
70336;SHT31;57756;47.408;18.940;2022-12-07T12:55:47;7.32;82.28
70336;SHT31;57756;47.408;18.940;2022-12-07T13:00:45;7.19;82.71
70336;SHT31;57756;47.408;18.940;2022-12-07T13:03:27;7.09;82.64
70336;SHT31;57756;47.408;18.940;2022-12-07T13:08:52;7.15;81.84
70336;SHT31;57756;47.408;18.940;2022-12-07T13:11:28;7.18;82.62
70336;SHT31;57756;47.408;18.940;2022-12-07T13:16:58;7.16;82.36
70336;SHT31;57756;47.408;18.940;2022-12-07T13:25:23;7.14;81.47
70336;SHT31;57756;47.408;18.940;2022-12-07T13:28:01;7.06;81.28
70336;SHT31;57756;47.408;18.940;2022-12-07T13:30:28;6.99;81.45
70336;SHT31;57756;47.408;18.940;2022-12-07T13:32:56;7.01;79.03
70336;SHT31;57756;47.408;18.940;2022-12-07T13:35:32;6.91;78.51
70336;SHT31;57756;47.408;18.940;2022-12-07T13:37:59;6.94;78.68
70336;SHT31;57756;47.408;18.940;2022-12-07T13:40:26;6.88;78.00
70336;SHT31;57756;47.408;18.940;2022-12-07T13:43:03;6.77;76.75
70336;SHT31;57756;47.408;18.940;2022-12-07T13:45:31;6.77;78.31
70336;SHT31;57756;47.408;18.940;2022-12-07T13:48:33;6.78;78.21
70336;SHT31;57756;47.408;18.940;2022-12-07T13:51:02;6.64;78.86
70336;SHT31;57756;47.408;18.940;2022-12-07T13:53:28;6.68;78.95
70336;SHT31;57756;47.408;18.940;2022-12-07T13:55:59;6.64;80.27
70336;SHT31;57756;47.408;18.940;2022-12-07T13:58:27;6.61;79.16
70336;SHT31;57756;47.408;18.940;2022-12-07T14:00:55;6.47;79.26
70336;SHT31;57756;47.408;18.940;2022-12-07T14:03:25;6.47;80.28
70336;SHT31;57756;47.408;18.940;2022-12-07T14:06:25;6.43;80.77
70336;SHT31;57756;47.408;18.940;2022-12-07T14:09:16;6.40;81.55
70336;SHT31;57756;47.408;18.940;2022-12-07T14:11:43;6.40;81.19
70336;SHT31;57756;47.408;18.940;2022-12-07T14:14:14;6.40;81.86
70336;SHT31;57756;47.408;18.940;2022-12-07T14:16:41;6.37;82.36
70336;SHT31;57756;47.408;18.940;2022-12-07T14:19:43;6.29;82.71
70336;SHT31;57756;47.408;18.940;2022-12-07T14:22:34;6.30;82.35
70336;SHT31;57756;47.408;18.940;2022-12-07T14:27:32;6.28;84.17
70336;SHT31;57756;47.408;18.940;2022-12-07T14:30:02;6.25;84.31
70336;SHT31;57756;47.408;18.940;2022-12-07T14:32:29;6.16;84.11
70336;SHT31;57756;47.408;18.940;2022-12-07T14:34:56;6.09;84.97
70336;SHT31;57756;47.408;18.940;2022-12-07T14:37:22;6.09;84.24
70336;SHT31;57756;47.408;18.940;2022-12-07T14:39:47;6.06;85.27
70336;SHT31;57756;47.408;18.940;2022-12-07T14:42:13;5.97;84.63
70336;SHT31;57756;47.408;18.940;2022-12-07T14:44:38;5.98;84.34
70336;SHT31;57756;47.408;18.940;2022-12-07T14:47:04;5.97;84.73
70336;SHT31;57756;47.408;18.940;2022-12-07T14:49:29;5.92;86.07
70336;SHT31;57756;47.408;18.940;2022-12-07T14:51:55;5.85;86.57
70336;SHT31;57756;47.408;18.940;2022-12-07T14:54:22;5.82;85.95
70336;SHT31;57756;47.408;18.940;2022-12-07T14:56:49;5.79;87.46
70336;SHT31;57756;47.408;18.940;2022-12-07T14:59:16;5.70;88.07
70336;SHT31;57756;47.408;18.940;2022-12-07T15:01:42;5.68;87.61
70336;SHT31;57756;47.408;18.940;2022-12-07T15:04:08;5.58;88.01
70336;SHT31;57756;47.408;18.940;2022-12-07T15:06:34;5.51;87.99
70336;SHT31;57756;47.408;18.940;2022-12-07T15:09:00;5.50;88.82
70336;SHT31;57756;47.408;18.940;2022-12-07T15:11:25;5.34;88.76
70336;SHT31;57756;47.408;18.940;2022-12-07T15:13:51;5.30;89.02
70336;SHT31;57756;47.408;18.940;2022-12-07T15:16:38;5.26;89.65
70336;SHT31;57756;47.408;18.940;2022-12-07T15:19:18;5.13;89.93
70336;SHT31;57756;47.408;18.940;2022-12-07T15:21:45;5.05;90.38
70336;SHT31;57756;47.408;18.940;2022-12-07T15:24:11;4.95;90.89
70336;SHT31;57756;47.408;18.940;2022-12-07T15:26:38;4.85;90.75
70336;SHT31;57756;47.408;18.940;2022-12-07T15:29:04;4.74;90.81
70336;SHT31;57756;47.408;18.940;2022-12-07T15:31:30;4.65;90.81
70336;SHT31;57756;47.408;18.940;2022-12-07T15:33:55;4.53;91.11
70336;SHT31;57756;47.408;18.940;2022-12-07T15:36:23;4.40;91.33
70336;SHT31;57756;47.408;18.940;2022-12-07T15:38:49;4.39;91.29
70336;SHT31;57756;47.408;18.940;2022-12-07T15:41:15;4.23;91.42
70336;SHT31;57756;47.408;18.940;2022-12-07T15:43:41;4.16;91.42
70336;SHT31;57756;47.408;18.940;2022-12-07T15:46:35;4.01;91.71
70336;SHT31;57756;47.408;18.940;2022-12-07T15:49:01;3.99;91.72
70336;SHT31;57756;47.408;18.940;2022-12-07T15:51:30;3.89;91.89
70336;SHT31;57756;47.408;18.940;2022-12-07T15:53:57;3.86;91.46
70336;SHT31;57756;47.408;18.940;2022-12-07T15:56:22;3.78;91.91
70336;SHT31;57756;47.408;18.940;2022-12-07T15:58:48;3.70;92.13
70336;SHT31;57756;47.408;18.940;2022-12-07T16:01:15;3.58;91.37
70336;SHT31;57756;47.408;18.940;2022-12-07T16:03:41;3.48;91.68
70336;SHT31;57756;47.408;18.940;2022-12-07T16:06:07;3.38;92.41
70336;SHT31;57756;47.408;18.940;2022-12-07T16:08:32;3.38;93.03
70336;SHT31;57756;47.408;18.940;2022-12-07T16:10:58;3.33;92.47
70336;SHT31;57756;47.408;18.940;2022-12-07T16:13:24;3.26;92.83
70336;SHT31;57756;47.408;18.940;2022-12-07T16:15:49;3.13;92.18
70336;SHT31;57756;47.408;18.940;2022-12-07T16:18:15;3.09;92.48
70336;SHT31;57756;47.408;18.940;2022-12-07T16:20:40;3.10;92.74
70336;SHT31;57756;47.408;18.940;2022-12-07T16:23:06;3.02;92.79
70336;SHT31;57756;47.408;18.940;2022-12-07T16:25:32;2.93;93.30
70336;SHT31;57756;47.408;18.940;2022-12-07T16:27:58;2.89;93.62
70336;SHT31;57756;47.408;18.940;2022-12-07T16:30:23;2.85;93.67
70336;SHT31;57756;47.408;18.940;2022-12-07T16:32:50;2.78;93.69
70336;SHT31;57756;47.408;18.940;2022-12-07T16:35:16;2.66;92.94
70336;SHT31;57756;47.408;18.940;2022-12-07T16:37:42;2.59;92.98
70336;SHT31;57756;47.408;18.940;2022-12-07T16:40:08;2.52;93.16
70336;SHT31;57756;47.408;18.940;2022-12-07T16:42:34;2.49;93.46
70336;SHT31;57756;47.408;18.940;2022-12-07T16:45:00;2.45;93.75
70336;SHT31;57756;47.408;18.940;2022-12-07T16:47:26;2.41;93.61
70336;SHT31;57756;47.408;18.940;2022-12-07T16:49:51;2.34;94.53
70336;SHT31;57756;47.408;18.940;2022-12-07T16:52:18;2.37;93.72
70336;SHT31;57756;47.408;18.940;2022-12-07T16:54:44;2.37;93.66
70336;SHT31;57756;47.408;18.940;2022-12-07T16:57:09;2.30;94.53
70336;SHT31;57756;47.408;18.940;2022-12-07T16:59:35;2.33;94.08
70336;SHT31;57756;47.408;18.940;2022-12-07T17:02:00;2.26;94.30
70336;SHT31;57756;47.408;18.940;2022-12-07T17:04:25;2.24;94.52
70336;SHT31;57756;47.408;18.940;2022-12-07T17:06:51;2.19;94.43
70336;SHT31;57756;47.408;18.940;2022-12-07T17:09:16;2.10;94.24
70336;SHT31;57756;47.408;18.940;2022-12-07T17:11:44;2.07;94.69
70336;SHT31;57756;47.408;18.940;2022-12-07T17:14:09;2.00;94.78
70336;SHT31;57756;47.408;18.940;2022-12-07T17:16:54;1.96;94.46
70336;SHT31;57756;47.408;18.940;2022-12-07T17:19:19;1.95;94.57
70336;SHT31;57756;47.408;18.940;2022-12-07T17:21:45;1.86;93.96
70336;SHT31;57756;47.408;18.940;2022-12-07T17:24:13;1.81;94.61
70336;SHT31;57756;47.408;18.940;2022-12-07T17:26:39;1.73;94.88
70336;SHT31;57756;47.408;18.940;2022-12-07T17:29:06;1.66;95.45
70336;SHT31;57756;47.408;18.940;2022-12-07T17:31:34;1.66;95.38
70336;SHT31;57756;47.408;18.940;2022-12-07T17:34:00;1.65;95.11
70336;SHT31;57756;47.408;18.940;2022-12-07T17:36:27;1.68;95.06
70336;SHT31;57756;47.408;18.940;2022-12-07T17:38:53;1.63;95.01
70336;SHT31;57756;47.408;18.940;2022-12-07T17:41:21;1.63;95.21
70336;SHT31;57756;47.408;18.940;2022-12-07T17:44:07;1.63;94.75
70336;SHT31;57756;47.408;18.940;2022-12-07T17:46:33;1.55;94.78
70336;SHT31;57756;47.408;18.940;2022-12-07T17:48:59;1.54;94.29
70336;SHT31;57756;47.408;18.940;2022-12-07T17:51:25;1.47;94.82